createdAt,value
2023-01-17T00:00:48.949Z,0.23
2023-01-17T00:03:52.851Z,0.18
2023-01-17T00:06:58.509Z,0.28
2023-01-17T00:10:02.572Z,0.29
2023-01-17T00:13:07.016Z,0.34
2023-01-17T00:16:10.774Z,0.16
2023-01-17T00:19:14.841Z,0.18
2023-01-17T00:22:18.818Z,0.20
2023-01-17T00:25:22.922Z,0.11
2023-01-17T00:28:28.002Z,0.15
2023-01-17T00:31:32.134Z,0.20
2023-01-17T00:34:36.033Z,0.16
2023-01-17T00:37:40.172Z,0.17
2023-01-17T00:40:44.190Z,0.20
2023-01-17T00:43:48.350Z,0.21
2023-01-17T00:46:52.474Z,0.24
2023-01-17T00:49:56.316Z,0.24
2023-01-17T00:53:00.362Z,0.23
2023-01-17T00:56:04.481Z,0.21
2023-01-17T00:59:08.603Z,0.38
2023-01-17T01:02:12.554Z,0.37
2023-01-17T01:05:16.481Z,0.49
2023-01-17T01:08:20.405Z,0.49
2023-01-17T01:11:25.655Z,0.45
2023-01-17T01:14:29.829Z,0.52
2023-01-17T01:17:33.759Z,0.55
2023-01-17T01:20:37.877Z,0.76
2023-01-17T01:23:42.096Z,0.79
2023-01-17T01:26:47.606Z,0.84
2023-01-17T01:29:51.865Z,0.63
2023-01-17T01:32:55.996Z,0.73
2023-01-17T01:36:00.029Z,0.63
2023-01-17T01:39:04.080Z,0.66
2023-01-17T01:42:08.138Z,0.65
2023-01-17T01:45:12.253Z,0.67
2023-01-17T01:48:16.340Z,0.63
2023-01-17T01:51:20.093Z,0.68
2023-01-17T01:54:24.211Z,0.75
2023-01-17T01:57:28.143Z,0.80
2023-01-17T02:00:32.139Z,0.74
2023-01-17T02:03:36.267Z,0.82
2023-01-17T02:06:40.354Z,0.70
2023-01-17T02:09:44.415Z,0.74
2023-01-17T02:12:48.314Z,0.72
2023-01-17T02:15:52.346Z,0.55
2023-01-17T02:18:58.399Z,0.43
2023-01-17T02:22:02.423Z,0.51
2023-01-17T02:25:06.851Z,0.37
2023-01-17T02:28:10.777Z,0.38
2023-01-17T02:31:14.818Z,0.32
2023-01-17T02:34:18.662Z,0.34
2023-01-17T02:37:22.756Z,0.41
2023-01-17T02:40:26.811Z,0.47
2023-01-17T02:43:30.633Z,0.41
2023-01-17T02:46:34.581Z,0.41
2023-01-17T02:49:38.707Z,0.35
2023-01-17T02:52:43.003Z,0.47
2023-01-17T02:55:47.073Z,0.37
2023-01-17T02:58:51.934Z,0.37
2023-01-17T03:01:56.238Z,0.40
2023-01-17T03:05:01.537Z,0.42
2023-01-17T03:08:05.850Z,0.36
2023-01-17T03:11:09.975Z,0.33
2023-01-17T03:14:13.836Z,0.45
2023-01-17T03:17:17.773Z,0.24
2023-01-17T03:20:22.730Z,0.39
2023-01-17T03:23:27.094Z,0.30
2023-01-17T03:26:30.839Z,0.37
2023-01-17T03:29:34.757Z,0.37
2023-01-17T03:32:38.668Z,0.32
2023-01-17T03:35:42.959Z,0.40
2023-01-17T03:38:46.922Z,0.37
2023-01-17T03:41:50.929Z,0.35
2023-01-17T03:44:54.700Z,0.41
2023-01-17T03:47:58.708Z,0.44
2023-01-17T03:51:02.925Z,0.54
2023-01-17T03:54:06.980Z,0.77
2023-01-17T03:57:10.713Z,0.97
2023-01-17T04:00:14.775Z,1.08
2023-01-17T04:03:18.873Z,0.96
2023-01-17T04:06:22.976Z,0.82
2023-01-17T04:09:26.828Z,0.75
2023-01-17T04:12:30.739Z,0.70
2023-01-17T04:15:34.823Z,0.88
2023-01-17T04:18:38.891Z,1.10
2023-01-17T04:21:42.890Z,1.36
2023-01-17T04:24:46.837Z,1.12
2023-01-17T04:27:53.985Z,1.18
2023-01-17T04:30:58.168Z,1.16
2023-01-17T04:34:02.331Z,1.16
2023-01-17T04:37:06.361Z,1.12
2023-01-17T04:40:10.421Z,1.20
2023-01-17T04:43:14.284Z,1.11
2023-01-17T04:46:18.184Z,1.00
2023-01-17T04:49:22.316Z,1.13
2023-01-17T04:52:26.335Z,1.13
2023-01-17T04:55:30.201Z,1.17
2023-01-17T04:58:34.129Z,1.14
2023-01-17T05:01:38.544Z,1.24
2023-01-17T05:04:42.589Z,1.26
2023-01-17T05:07:46.586Z,1.21
2023-01-17T05:10:50.500Z,1.22
2023-01-17T05:13:54.280Z,1.07
2023-01-17T05:16:58.308Z,1.09
2023-01-17T05:20:02.315Z,1.04
2023-01-17T05:23:06.368Z,0.96
2023-01-17T05:26:10.342Z,0.98
2023-01-17T05:29:14.491Z,1.05
2023-01-17T05:32:18.672Z,1.04
2023-01-17T05:35:22.597Z,1.02
2023-01-17T05:38:26.415Z,0.94
2023-01-17T05:41:30.789Z,0.98
2023-01-17T05:44:35.086Z,1.29
2023-01-17T05:47:38.976Z,1.21
2023-01-17T05:50:42.774Z,1.18
2023-01-17T05:53:46.798Z,1.27
2023-01-17T05:56:50.847Z,1.59
2023-01-17T05:59:55.052Z,1.87
2023-01-17T06:02:59.251Z,1.49
2023-01-17T06:06:03.375Z,1.18
2023-01-17T06:09:07.002Z,0.89
2023-01-17T06:12:11.217Z,0.99
2023-01-17T06:15:14.945Z,1.07
2023-01-17T06:18:20.671Z,1.07
2023-01-17T06:21:26.261Z,0.83
2023-01-17T06:24:30.342Z,0.99
2023-01-17T06:27:34.687Z,1.03
2023-01-17T06:30:38.773Z,1.03
2023-01-17T06:33:42.606Z,0.92
2023-01-17T06:36:46.535Z,0.79
2023-01-17T06:39:50.698Z,0.92
2023-01-17T06:42:54.649Z,0.87
2023-01-17T06:45:58.598Z,0.80
2023-01-17T06:49:02.332Z,1.03
2023-01-17T06:52:06.381Z,1.11
2023-01-17T06:55:10.302Z,1.26
2023-01-17T06:58:14.463Z,1.25
2023-01-17T07:01:18.319Z,1.42
2023-01-17T07:04:22.459Z,1.06
2023-01-17T07:07:26.396Z,1.26
2023-01-17T07:10:31.769Z,1.53
2023-01-17T07:13:36.426Z,1.49
2023-01-17T07:16:40.509Z,1.43
2023-01-17T07:19:44.448Z,1.53
2023-01-17T07:22:48.474Z,1.52
2023-01-17T07:25:52.739Z,1.90
2023-01-17T07:28:57.168Z,1.56
2023-01-17T07:32:00.601Z,1.72
2023-01-17T07:35:05.105Z,1.69
2023-01-17T07:38:09.027Z,1.78
2023-01-17T07:41:13.358Z,1.72
2023-01-17T07:44:17.496Z,1.27
2023-01-17T07:47:21.360Z,1.50
2023-01-17T07:50:25.036Z,1.63
2023-01-17T07:53:29.010Z,1.31
2023-01-17T07:56:32.879Z,1.50
2023-01-17T07:59:36.749Z,1.50
2023-01-17T08:02:40.661Z,1.32
2023-01-17T08:05:44.534Z,1.50
2023-01-17T08:08:48.302Z,1.62
2023-01-17T08:11:53.574Z,1.51
2023-01-17T08:14:57.617Z,1.61
2023-01-17T08:18:01.476Z,1.76
2023-01-17T08:21:08.001Z,1.72
2023-01-17T08:24:14.509Z,1.55
2023-01-17T08:27:18.669Z,1.65
2023-01-17T08:30:22.596Z,1.61
2023-01-17T08:33:26.185Z,1.88
2023-01-17T08:36:30.210Z,1.86
2023-01-17T08:39:34.293Z,2.14
2023-01-17T08:42:38.187Z,2.17
2023-01-17T08:45:41.883Z,2.24
2023-01-17T08:48:45.907Z,2.35
2023-01-17T08:51:49.918Z,2.36
2023-01-17T08:54:53.942Z,2.67
2023-01-17T08:57:57.820Z,2.46
2023-01-17T09:01:01.925Z,1.85
2023-01-17T09:04:06.066Z,2.06
2023-01-17T09:07:09.888Z,2.28
2023-01-17T09:10:13.874Z,2.33
2023-01-17T09:13:17.675Z,2.80
2023-01-17T09:16:21.646Z,2.91
2023-01-17T09:19:25.608Z,3.10
2023-01-17T09:22:29.648Z,3.21
2023-01-17T09:25:33.405Z,3.18
2023-01-17T09:28:38.628Z,3.38
2023-01-17T09:31:42.846Z,3.19
2023-01-17T09:38:15.321Z,3.12
2023-01-17T09:41:19.398Z,3.10
2023-01-17T09:44:23.707Z,2.91
2023-01-17T09:47:27.635Z,2.86
2023-01-17T09:50:31.538Z,2.35
2023-01-17T09:53:37.801Z,1.93
2023-01-17T09:56:41.787Z,1.61
2023-01-17T09:59:46.025Z,1.60
2023-01-17T10:02:49.926Z,1.39
2023-01-17T10:05:55.474Z,1.26
2023-01-17T10:08:59.314Z,1.16
2023-01-17T10:12:04.717Z,1.09
2023-01-17T10:15:09.364Z,1.36
2023-01-17T10:18:28.898Z,1.15
2023-01-17T10:21:34.925Z,1.25
2023-01-17T10:30:05.124Z,1.21
2023-01-17T10:33:09.328Z,1.20
2023-01-17T10:48:24.467Z,1.06
2023-01-17T10:51:28.452Z,1.04
2023-01-17T10:54:32.379Z,1.10
2023-01-17T10:57:36.475Z,1.12
2023-01-17T11:00:40.473Z,0.93
2023-01-17T11:03:44.578Z,1.05
2023-01-17T11:06:57.833Z,0.95
2023-01-17T11:10:03.546Z,0.79
2023-01-17T11:13:07.539Z,0.66
2023-01-17T11:16:11.487Z,0.51
2023-01-17T11:19:15.706Z,0.55
2023-01-17T11:22:20.062Z,0.62
2023-01-17T11:25:24.059Z,0.54
2023-01-17T11:28:27.963Z,0.59
2023-01-17T11:31:32.394Z,0.56
2023-01-17T11:34:36.516Z,0.52
2023-01-17T11:37:40.636Z,0.71
2023-01-17T11:41:08.038Z,0.98
2023-01-17T11:44:17.889Z,0.99
2023-01-17T11:47:28.637Z,1.08
2023-01-17T11:50:40.680Z,1.20
2023-01-17T11:53:47.574Z,1.18
2023-01-17T11:57:06.038Z,1.29
2023-01-17T12:00:12.308Z,1.31
2023-01-17T12:03:30.296Z,1.44
2023-01-17T12:06:47.832Z,1.93
2023-01-17T12:10:04.150Z,1.56
2023-01-17T12:13:13.773Z,1.45
2023-01-17T12:17:56.188Z,1.50
2023-01-17T12:23:28.777Z,1.94
2023-01-17T12:33:39.336Z,2.20
2023-01-17T12:36:49.791Z,1.95
2023-01-17T12:39:55.404Z,1.81
2023-01-17T12:43:16.922Z,2.03
2023-01-17T12:46:26.846Z,1.97
2023-01-17T12:49:33.566Z,2.27
2023-01-17T12:52:40.085Z,2.40
2023-01-17T12:55:46.904Z,2.40
2023-01-17T13:02:25.762Z,2.83
2023-01-17T13:05:32.315Z,2.66
2023-01-17T13:08:36.636Z,2.79
2023-01-17T13:24:11.550Z,3.23
2023-01-17T13:27:21.214Z,2.80
2023-01-17T13:30:25.289Z,3.05
2023-01-17T13:33:33.138Z,3.17
2023-01-17T13:36:37.380Z,2.80
2023-01-17T13:39:42.138Z,2.98
2023-01-17T13:42:46.008Z,2.96
2023-01-17T13:45:49.812Z,2.80
2023-01-17T13:48:54.094Z,2.64
2023-01-17T13:51:58.542Z,2.29
2023-01-17T13:55:02.584Z,2.34
2023-01-17T13:58:07.061Z,2.56
2023-01-17T14:01:11.078Z,2.09
2023-01-17T14:04:17.069Z,1.89
2023-01-17T14:07:21.359Z,1.28
2023-01-17T14:13:47.957Z,1.23
2023-01-17T14:16:51.929Z,1.25
2023-01-17T14:19:58.983Z,1.33
2023-01-17T14:26:11.252Z,1.08
2023-01-17T14:29:15.530Z,0.46
2023-01-17T14:32:23.905Z,0.67
2023-01-17T14:37:27.697Z,0.81
2023-01-17T14:41:06.392Z,0.80
2023-01-17T14:42:58.028Z,0.87
2023-01-17T14:46:02.358Z,1.09
2023-01-17T14:49:06.359Z,0.85
2023-01-17T14:52:10.384Z,0.87
2023-01-17T14:55:14.066Z,0.77
2023-01-17T14:58:19.081Z,0.93
2023-01-17T15:01:23.579Z,1.03
2023-01-17T15:04:28.140Z,1.13
2023-01-17T15:07:32.264Z,1.06
2023-01-17T15:10:36.167Z,1.54
2023-01-17T15:13:44.617Z,1.41
2023-01-17T15:16:53.365Z,1.29
2023-01-17T15:19:59.876Z,1.21
2023-01-17T15:23:05.176Z,1.07
2023-01-17T15:26:09.280Z,1.26
2023-01-17T15:29:13.643Z,1.25
2023-01-17T15:32:18.794Z,1.91
2023-01-17T15:35:22.877Z,1.20
2023-01-17T15:38:31.667Z,1.39
2023-01-17T15:41:41.358Z,1.13
2023-01-17T15:44:48.952Z,1.04
2023-01-17T15:47:53.750Z,0.99
2023-01-17T15:50:58.155Z,1.20
2023-01-17T15:54:04.579Z,1.54
2023-01-17T15:57:09.187Z,1.61
2023-01-17T16:03:00.407Z,1.72
2023-01-17T16:06:09.861Z,1.64
2023-01-17T16:41:40.407Z,1.03
2023-01-17T17:22:43.087Z,1.09
2023-01-17T17:29:18.745Z,1.45
2023-01-17T17:32:23.765Z,1.21
2023-01-17T17:35:34.963Z,1.44
2023-01-17T17:38:39.138Z,1.49
2023-01-17T17:41:55.978Z,1.52
2023-01-17T17:45:00.809Z,1.61
2023-01-17T17:48:04.553Z,1.73
2023-01-17T17:51:10.043Z,1.62
2023-01-17T17:54:16.535Z,1.51
2023-01-17T17:57:22.850Z,1.65
2023-01-17T18:00:41.335Z,1.59
2023-01-17T18:03:46.607Z,1.46
2023-01-17T18:06:50.542Z,1.71
2023-01-17T18:09:54.749Z,1.80
2023-01-17T18:13:04.029Z,5.99
2023-01-17T18:16:08.391Z,7.22
2023-01-17T18:19:12.495Z,5.82
2023-01-17T18:22:16.626Z,1.59
2023-01-17T18:25:20.585Z,1.87
2023-01-17T18:28:24.476Z,1.62
2023-01-17T18:31:28.984Z,1.53
2023-01-17T18:34:32.962Z,1.44
2023-01-17T18:37:37.744Z,1.80
2023-01-17T18:40:44.979Z,3.34
2023-01-17T18:43:51.765Z,2.58
2023-01-17T18:47:22.701Z,1.82
2023-01-17T18:57:15.666Z,0.97
2023-01-17T19:00:19.947Z,0.85
2023-01-17T19:03:23.918Z,0.76
2023-01-17T19:06:27.778Z,0.97
2023-01-17T19:09:34.182Z,1.27
2023-01-17T19:12:38.291Z,1.34
2023-01-17T19:15:45.410Z,1.07
2023-01-17T19:18:49.515Z,1.14
2023-01-17T19:21:53.390Z,1.25
2023-01-17T19:25:00.480Z,1.26
2023-01-17T19:28:04.656Z,1.40
2023-01-17T19:31:09.981Z,1.35
2023-01-17T19:34:15.588Z,1.39
2023-01-17T19:37:19.405Z,1.52
2023-01-17T19:40:23.390Z,1.62
2023-01-17T19:43:27.279Z,1.85
2023-01-17T19:46:31.395Z,1.63
2023-01-17T19:49:39.690Z,2.12
2023-01-17T19:52:45.121Z,2.32
2023-01-17T19:55:51.455Z,1.92
2023-01-17T19:58:55.565Z,2.14
2023-01-17T20:09:03.058Z,2.77
2023-01-17T20:12:08.628Z,3.18
2023-01-17T20:15:13.549Z,2.61
2023-01-17T20:18:24.127Z,2.40
2023-01-17T20:21:29.277Z,3.22
2023-01-17T20:24:43.433Z,2.61
2023-01-17T20:27:47.497Z,2.44
2023-01-17T20:30:51.346Z,2.51
2023-01-17T20:33:55.320Z,2.74
2023-01-17T20:37:05.461Z,2.53
2023-01-17T20:40:09.587Z,2.61
2023-01-17T20:43:20.099Z,2.83
2023-01-17T20:46:24.103Z,2.57
2023-01-17T20:49:28.523Z,2.59
2023-01-17T20:52:34.579Z,2.52
2023-01-17T20:55:38.762Z,2.82
2023-01-17T20:58:42.783Z,3.09
2023-01-17T21:01:50.934Z,3.16
2023-01-17T21:32:21.287Z,0.84
2023-01-17T21:35:45.510Z,0.79
2023-01-17T21:38:55.439Z,0.78
2023-01-17T21:42:00.041Z,0.82
2023-01-17T21:48:29.895Z,0.79
2023-01-17T21:51:39.808Z,0.79
2023-01-17T21:54:43.857Z,0.62
2023-01-17T21:57:51.972Z,0.63
2023-01-17T22:00:59.538Z,0.55
2023-01-17T22:04:03.727Z,0.49
2023-01-17T22:07:15.879Z,0.38
2023-01-17T22:10:23.144Z,0.51
2023-01-17T22:13:27.214Z,0.47
2023-01-17T22:16:34.589Z,0.56
2023-01-17T22:19:38.469Z,0.57
2023-01-17T22:22:48.158Z,0.64
2023-01-17T22:25:52.249Z,0.60
2023-01-17T22:29:00.751Z,0.52
2023-01-17T22:32:06.402Z,0.57
2023-01-17T22:39:20.031Z,0.59
2023-01-17T22:42:00.780Z,0.58
2023-01-17T22:45:05.952Z,0.61
2023-01-17T22:48:43.317Z,0.55
2023-01-17T22:51:34.785Z,0.70
2023-01-17T22:54:40.666Z,0.76
2023-01-17T22:57:53.607Z,0.63
2023-01-17T23:01:08.049Z,0.63
2023-01-17T23:10:54.208Z,0.64
2023-01-17T23:13:59.407Z,0.69
2023-01-17T23:56:02.247Z,0.75
2023-01-17T23:59:29.375Z,0.83
